sensor_id;sensor_type;location;lat;lon;timestamp;P1;durP1;ratioP1;P2;durP2;ratioP2
76604;SDS011;73179;50.978;16.998;2024-03-17T00:00:37;6.90;;;3.70;;
76604;SDS011;73179;50.978;16.998;2024-03-17T00:03:25;9.93;;;3.35;;
76604;SDS011;73179;50.978;16.998;2024-03-17T00:05:58;6.85;;;4.25;;
76604;SDS011;73179;50.978;16.998;2024-03-17T00:08:27;9.77;;;3.83;;
76604;SDS011;73179;50.978;16.998;2024-03-17T00:10:54;10.45;;;3.25;;
76604;SDS011;73179;50.978;16.998;2024-03-17T00:13:23;5.47;;;3.60;;
76604;SDS011;73179;50.978;16.998;2024-03-17T00:15:50;8.15;;;3.38;;
76604;SDS011;73179;50.978;16.998;2024-03-17T00:18:18;10.65;;;4.13;;
76604;SDS011;73179;50.978;16.998;2024-03-17T00:20:44;7.10;;;3.67;;
76604;SDS011;73179;50.978;16.998;2024-03-17T00:23:10;8.32;;;3.35;;
76604;SDS011;73179;50.978;16.998;2024-03-17T00:25:38;5.20;;;3.20;;
76604;SDS011;73179;50.978;16.998;2024-03-17T00:28:04;9.20;;;3.70;;
76604;SDS011;73179;50.978;16.998;2024-03-17T00:30:31;6.97;;;3.70;;
76604;SDS011;73179;50.978;16.998;2024-03-17T00:32:57;7.70;;;4.18;;
76604;SDS011;73179;50.978;16.998;2024-03-17T00:35:26;6.35;;;3.35;;
76604;SDS011;73179;50.978;16.998;2024-03-17T00:37:52;7.07;;;4.20;;
76604;SDS011;73179;50.978;16.998;2024-03-17T00:40:19;9.77;;;3.78;;
76604;SDS011;73179;50.978;16.998;2024-03-17T00:42:46;6.03;;;3.90;;
76604;SDS011;73179;50.978;16.998;2024-03-17T00:45:12;5.60;;;3.47;;
76604;SDS011;73179;50.978;16.998;2024-03-17T00:47:39;8.57;;;3.80;;
76604;SDS011;73179;50.978;16.998;2024-03-17T00:50:05;6.45;;;3.42;;
76604;SDS011;73179;50.978;16.998;2024-03-17T00:52:36;8.63;;;4.05;;
76604;SDS011;73179;50.978;16.998;2024-03-17T00:55:03;7.75;;;3.92;;
76604;SDS011;73179;50.978;16.998;2024-03-17T00:57:29;6.10;;;3.55;;
76604;SDS011;73179;50.978;16.998;2024-03-17T00:59:55;6.10;;;3.38;;
76604;SDS011;73179;50.978;16.998;2024-03-17T01:02:21;8.50;;;4.00;;
76604;SDS011;73179;50.978;16.998;2024-03-17T01:04:48;6.38;;;3.58;;
76604;SDS011;73179;50.978;16.998;2024-03-17T01:07:14;10.45;;;4.18;;
76604;SDS011;73179;50.978;16.998;2024-03-17T01:09:40;11.10;;;3.78;;
76604;SDS011;73179;50.978;16.998;2024-03-17T01:12:06;13.52;;;4.68;;
76604;SDS011;73179;50.978;16.998;2024-03-17T01:14:33;7.75;;;4.38;;
76604;SDS011;73179;50.978;16.998;2024-03-17T01:16:59;7.07;;;3.78;;
76604;SDS011;73179;50.978;16.998;2024-03-17T01:19:26;7.53;;;3.47;;
76604;SDS011;73179;50.978;16.998;2024-03-17T01:21:52;7.03;;;3.67;;
76604;SDS011;73179;50.978;16.998;2024-03-17T01:24:19;7.03;;;3.22;;
76604;SDS011;73179;50.978;16.998;2024-03-17T01:26:45;5.25;;;3.65;;
76604;SDS011;73179;50.978;16.998;2024-03-17T01:29:12;7.25;;;3.90;;
76604;SDS011;73179;50.978;16.998;2024-03-17T01:31:38;10.00;;;3.22;;
76604;SDS011;73179;50.978;16.998;2024-03-17T01:34:05;8.73;;;3.60;;
76604;SDS011;73179;50.978;16.998;2024-03-17T01:36:31;9.50;;;3.65;;
76604;SDS011;73179;50.978;16.998;2024-03-17T01:38:59;6.05;;;3.67;;
76604;SDS011;73179;50.978;16.998;2024-03-17T01:41:25;7.63;;;3.50;;
76604;SDS011;73179;50.978;16.998;2024-03-17T01:43:51;8.70;;;3.53;;
76604;SDS011;73179;50.978;16.998;2024-03-17T01:46:17;5.97;;;3.03;;
76604;SDS011;73179;50.978;16.998;2024-03-17T01:48:44;6.40;;;3.28;;
76604;SDS011;73179;50.978;16.998;2024-03-17T01:51:12;6.32;;;3.70;;
76604;SDS011;73179;50.978;16.998;2024-03-17T01:53:40;6.47;;;2.90;;
76604;SDS011;73179;50.978;16.998;2024-03-17T01:56:09;8.80;;;3.25;;
76604;SDS011;73179;50.978;16.998;2024-03-17T01:58:37;8.45;;;3.53;;
76604;SDS011;73179;50.978;16.998;2024-03-17T02:01:03;6.65;;;3.55;;
76604;SDS011;73179;50.978;16.998;2024-03-17T02:03:30;12.38;;;4.25;;
76604;SDS011;73179;50.978;16.998;2024-03-17T02:05:58;9.80;;;3.50;;
76604;SDS011;73179;50.978;16.998;2024-03-17T02:08:25;5.22;;;3.47;;
76604;SDS011;73179;50.978;16.998;2024-03-17T02:10:54;9.35;;;3.70;;
76604;SDS011;73179;50.978;16.998;2024-03-17T02:13:21;9.95;;;4.20;;
76604;SDS011;73179;50.978;16.998;2024-03-17T02:15:47;10.48;;;4.53;;
76604;SDS011;73179;50.978;16.998;2024-03-17T02:18:13;7.55;;;4.00;;
76604;SDS011;73179;50.978;16.998;2024-03-17T02:20:39;10.02;;;4.13;;
76604;SDS011;73179;50.978;16.998;2024-03-17T02:23:21;10.45;;;3.75;;
76604;SDS011;73179;50.978;16.998;2024-03-17T02:25:47;13.45;;;4.47;;
76604;SDS011;73179;50.978;16.998;2024-03-17T02:28:14;6.38;;;4.07;;
76604;SDS011;73179;50.978;16.998;2024-03-17T02:30:40;8.15;;;3.88;;
76604;SDS011;73179;50.978;16.998;2024-03-17T02:33:06;10.25;;;3.35;;
76604;SDS011;73179;50.978;16.998;2024-03-17T02:35:32;10.18;;;3.38;;
76604;SDS011;73179;50.978;16.998;2024-03-17T02:37:59;8.02;;;4.75;;
76604;SDS011;73179;50.978;16.998;2024-03-17T02:40:25;7.53;;;3.45;;
76604;SDS011;73179;50.978;16.998;2024-03-17T02:42:51;15.25;;;3.95;;
76604;SDS011;73179;50.978;16.998;2024-03-17T02:45:17;7.78;;;4.13;;
76604;SDS011;73179;50.978;16.998;2024-03-17T02:47:43;6.40;;;3.22;;
76604;SDS011;73179;50.978;16.998;2024-03-17T02:50:09;6.82;;;4.30;;
76604;SDS011;73179;50.978;16.998;2024-03-17T02:52:35;9.02;;;3.63;;
76604;SDS011;73179;50.978;16.998;2024-03-17T02:55:01;6.22;;;3.72;;
76604;SDS011;73179;50.978;16.998;2024-03-17T02:57:28;8.07;;;3.67;;
76604;SDS011;73179;50.978;16.998;2024-03-17T02:59:58;9.57;;;3.95;;
76604;SDS011;73179;50.978;16.998;2024-03-17T03:02:24;5.63;;;3.78;;
76604;SDS011;73179;50.978;16.998;2024-03-17T03:04:50;8.65;;;3.88;;
76604;SDS011;73179;50.978;16.998;2024-03-17T03:07:17;8.60;;;3.95;;
76604;SDS011;73179;50.978;16.998;2024-03-17T03:09:44;7.30;;;3.83;;
76604;SDS011;73179;50.978;16.998;2024-03-17T03:12:10;12.23;;;4.38;;
76604;SDS011;73179;50.978;16.998;2024-03-17T03:14:36;8.40;;;3.70;;
76604;SDS011;73179;50.978;16.998;2024-03-17T03:17:02;7.70;;;3.08;;
76604;SDS011;73179;50.978;16.998;2024-03-17T03:19:28;6.00;;;3.30;;
76604;SDS011;73179;50.978;16.998;2024-03-17T03:21:55;10.05;;;3.05;;
76604;SDS011;73179;50.978;16.998;2024-03-17T03:24:21;6.50;;;3.63;;
76604;SDS011;73179;50.978;16.998;2024-03-17T03:26:48;9.85;;;4.30;;
76604;SDS011;73179;50.978;16.998;2024-03-17T03:29:16;7.72;;;3.13;;
76604;SDS011;73179;50.978;16.998;2024-03-17T03:31:43;6.30;;;3.38;;
76604;SDS011;73179;50.978;16.998;2024-03-17T03:34:08;9.30;;;3.83;;
76604;SDS011;73179;50.978;16.998;2024-03-17T03:36:35;7.20;;;3.60;;
76604;SDS011;73179;50.978;16.998;2024-03-17T03:39:02;8.55;;;3.15;;
76604;SDS011;73179;50.978;16.998;2024-03-17T03:41:32;9.63;;;3.50;;
76604;SDS011;73179;50.978;16.998;2024-03-17T03:44:00;10.95;;;3.88;;
76604;SDS011;73179;50.978;16.998;2024-03-17T03:46:27;7.80;;;3.20;;
76604;SDS011;73179;50.978;16.998;2024-03-17T03:48:53;5.53;;;3.47;;
76604;SDS011;73179;50.978;16.998;2024-03-17T03:51:19;4.70;;;2.83;;
76604;SDS011;73179;50.978;16.998;2024-03-17T03:53:45;9.20;;;3.60;;
76604;SDS011;73179;50.978;16.998;2024-03-17T03:56:11;6.13;;;2.45;;
76604;SDS011;73179;50.978;16.998;2024-03-17T03:58:38;8.63;;;3.50;;
76604;SDS011;73179;50.978;16.998;2024-03-17T04:01:09;6.35;;;2.90;;
76604;SDS011;73179;50.978;16.998;2024-03-17T04:03:46;5.32;;;3.38;;
76604;SDS011;73179;50.978;16.998;2024-03-17T04:06:13;5.90;;;3.50;;
76604;SDS011;73179;50.978;16.998;2024-03-17T04:08:41;10.05;;;3.17;;
76604;SDS011;73179;50.978;16.998;2024-03-17T04:11:08;8.73;;;3.05;;
76604;SDS011;73179;50.978;16.998;2024-03-17T04:13:34;5.35;;;3.15;;
76604;SDS011;73179;50.978;16.998;2024-03-17T04:16:03;5.80;;;2.75;;
76604;SDS011;73179;50.978;16.998;2024-03-17T04:18:31;7.70;;;2.78;;
76604;SDS011;73179;50.978;16.998;2024-03-17T04:21:00;6.55;;;3.10;;
76604;SDS011;73179;50.978;16.998;2024-03-17T04:23:27;8.00;;;3.40;;
76604;SDS011;73179;50.978;16.998;2024-03-17T04:25:54;7.18;;;3.35;;
76604;SDS011;73179;50.978;16.998;2024-03-17T04:28:19;7.38;;;3.55;;
76604;SDS011;73179;50.978;16.998;2024-03-17T04:30:45;5.05;;;3.05;;
76604;SDS011;73179;50.978;16.998;2024-03-17T04:33:12;10.02;;;3.95;;
76604;SDS011;73179;50.978;16.998;2024-03-17T04:35:38;6.40;;;3.53;;
76604;SDS011;73179;50.978;16.998;2024-03-17T04:38:06;7.90;;;3.55;;
76604;SDS011;73179;50.978;16.998;2024-03-17T04:40:50;6.20;;;3.17;;
76604;SDS011;73179;50.978;16.998;2024-03-17T04:43:17;6.90;;;3.00;;
76604;SDS011;73179;50.978;16.998;2024-03-17T04:45:43;10.60;;;3.22;;
76604;SDS011;73179;50.978;16.998;2024-03-17T04:48:10;6.57;;;2.83;;
76604;SDS011;73179;50.978;16.998;2024-03-17T04:50:36;7.05;;;2.97;;
76604;SDS011;73179;50.978;16.998;2024-03-17T04:53:02;7.60;;;3.33;;
76604;SDS011;73179;50.978;16.998;2024-03-17T04:55:29;7.85;;;3.42;;
76604;SDS011;73179;50.978;16.998;2024-03-17T04:57:56;6.10;;;3.05;;
76604;SDS011;73179;50.978;16.998;2024-03-17T05:00:22;6.88;;;2.92;;
76604;SDS011;73179;50.978;16.998;2024-03-17T05:02:48;13.40;;;3.65;;
76604;SDS011;73179;50.978;16.998;2024-03-17T05:05:14;4.82;;;3.08;;
76604;SDS011;73179;50.978;16.998;2024-03-17T05:07:40;5.18;;;2.80;;
76604;SDS011;73179;50.978;16.998;2024-03-17T05:10:06;6.80;;;3.45;;
76604;SDS011;73179;50.978;16.998;2024-03-17T05:12:33;6.05;;;2.83;;
76604;SDS011;73179;50.978;16.998;2024-03-17T05:14:59;6.38;;;3.20;;
76604;SDS011;73179;50.978;16.998;2024-03-17T05:17:25;5.78;;;3.00;;
76604;SDS011;73179;50.978;16.998;2024-03-17T05:19:51;5.68;;;2.67;;
76604;SDS011;73179;50.978;16.998;2024-03-17T05:22:18;6.38;;;2.50;;
76604;SDS011;73179;50.978;16.998;2024-03-17T05:24:44;6.97;;;3.92;;
76604;SDS011;73179;50.978;16.998;2024-03-17T05:27:10;8.50;;;2.67;;
76604;SDS011;73179;50.978;16.998;2024-03-17T05:29:36;7.88;;;2.50;;
76604;SDS011;73179;50.978;16.998;2024-03-17T05:32:04;6.60;;;3.10;;
76604;SDS011;73179;50.978;16.998;2024-03-17T05:34:30;10.52;;;2.80;;
76604;SDS011;73179;50.978;16.998;2024-03-17T05:36:58;6.50;;;3.15;;
76604;SDS011;73179;50.978;16.998;2024-03-17T05:39:24;5.85;;;2.50;;
76604;SDS011;73179;50.978;16.998;2024-03-17T05:41:51;6.20;;;3.15;;
76604;SDS011;73179;50.978;16.998;2024-03-17T05:44:17;10.57;;;3.10;;
76604;SDS011;73179;50.978;16.998;2024-03-17T05:46:43;8.32;;;3.33;;
76604;SDS011;73179;50.978;16.998;2024-03-17T05:49:09;7.93;;;2.80;;
76604;SDS011;73179;50.978;16.998;2024-03-17T05:51:36;6.05;;;3.05;;
76604;SDS011;73179;50.978;16.998;2024-03-17T05:54:02;6.95;;;3.42;;
76604;SDS011;73179;50.978;16.998;2024-03-17T05:56:28;5.70;;;3.03;;
76604;SDS011;73179;50.978;16.998;2024-03-17T05:58:54;6.35;;;2.55;;
76604;SDS011;73179;50.978;16.998;2024-03-17T06:01:21;8.90;;;2.88;;
76604;SDS011;73179;50.978;16.998;2024-03-17T06:03:48;5.68;;;2.50;;
76604;SDS011;73179;50.978;16.998;2024-03-17T06:06:14;4.35;;;2.60;;
76604;SDS011;73179;50.978;16.998;2024-03-17T06:08:40;11.60;;;3.20;;
76604;SDS011;73179;50.978;16.998;2024-03-17T06:11:07;7.40;;;2.85;;
76604;SDS011;73179;50.978;16.998;2024-03-17T06:13:33;8.90;;;3.20;;
76604;SDS011;73179;50.978;16.998;2024-03-17T06:16:03;7.72;;;3.15;;
76604;SDS011;73179;50.978;16.998;2024-03-17T06:18:30;8.13;;;3.10;;
76604;SDS011;73179;50.978;16.998;2024-03-17T06:20:57;8.93;;;3.17;;
76604;SDS011;73179;50.978;16.998;2024-03-17T06:23:26;9.73;;;3.17;;
76604;SDS011;73179;50.978;16.998;2024-03-17T06:25:52;7.43;;;3.28;;
76604;SDS011;73179;50.978;16.998;2024-03-17T06:28:22;8.35;;;2.65;;
76604;SDS011;73179;50.978;16.998;2024-03-17T06:30:56;7.47;;;2.67;;
76604;SDS011;73179;50.978;16.998;2024-03-17T06:33:26;7.40;;;2.58;;
76604;SDS011;73179;50.978;16.998;2024-03-17T06:35:54;5.05;;;2.83;;
76604;SDS011;73179;50.978;16.998;2024-03-17T06:38:21;11.93;;;3.33;;
76604;SDS011;73179;50.978;16.998;2024-03-17T06:40:47;10.95;;;3.42;;
76604;SDS011;73179;50.978;16.998;2024-03-17T06:43:14;12.75;;;3.40;;
76604;SDS011;73179;50.978;16.998;2024-03-17T06:45:41;5.38;;;2.55;;
76604;SDS011;73179;50.978;16.998;2024-03-17T06:48:10;7.45;;;2.65;;
76604;SDS011;73179;50.978;16.998;2024-03-17T06:50:37;8.68;;;2.40;;
76604;SDS011;73179;50.978;16.998;2024-03-17T06:53:06;9.10;;;3.38;;
76604;SDS011;73179;50.978;16.998;2024-03-17T06:55:34;11.07;;;2.95;;
76604;SDS011;73179;50.978;16.998;2024-03-17T06:58:00;9.80;;;3.28;;
76604;SDS011;73179;50.978;16.998;2024-03-17T07:00:26;8.98;;;3.53;;
76604;SDS011;73179;50.978;16.998;2024-03-17T07:02:53;10.05;;;3.05;;
76604;SDS011;73179;50.978;16.998;2024-03-17T07:05:20;4.57;;;2.30;;
76604;SDS011;73179;50.978;16.998;2024-03-17T07:07:46;7.85;;;2.53;;
76604;SDS011;73179;50.978;16.998;2024-03-17T07:10:12;6.70;;;2.60;;
76604;SDS011;73179;50.978;16.998;2024-03-17T07:12:39;9.60;;;2.90;;
76604;SDS011;73179;50.978;16.998;2024-03-17T07:15:06;7.55;;;2.55;;
76604;SDS011;73179;50.978;16.998;2024-03-17T07:17:32;9.05;;;3.05;;
76604;SDS011;73179;50.978;16.998;2024-03-17T07:20:00;10.88;;;3.47;;
76604;SDS011;73179;50.978;16.998;2024-03-17T07:22:26;8.20;;;2.40;;
76604;SDS011;73179;50.978;16.998;2024-03-17T07:24:54;7.82;;;2.75;;
76604;SDS011;73179;50.978;16.998;2024-03-17T07:27:26;10.82;;;2.67;;
76604;SDS011;73179;50.978;16.998;2024-03-17T07:29:55;13.52;;;3.88;;
76604;SDS011;73179;50.978;16.998;2024-03-17T07:32:21;7.95;;;2.70;;
76604;SDS011;73179;50.978;16.998;2024-03-17T07:34:49;7.82;;;2.40;;
76604;SDS011;73179;50.978;16.998;2024-03-17T07:37:18;8.10;;;3.22;;
76604;SDS011;73179;50.978;16.998;2024-03-17T07:39:44;5.20;;;2.50;;
76604;SDS011;73179;50.978;16.998;2024-03-17T07:42:10;7.13;;;2.58;;
76604;SDS011;73179;50.978;16.998;2024-03-17T07:44:39;8.80;;;2.80;;
76604;SDS011;73179;50.978;16.998;2024-03-17T07:47:05;7.20;;;2.30;;
76604;SDS011;73179;50.978;16.998;2024-03-17T07:49:31;14.48;;;3.08;;
76604;SDS011;73179;50.978;16.998;2024-03-17T07:51:57;7.15;;;2.40;;
76604;SDS011;73179;50.978;16.998;2024-03-17T07:54:24;7.05;;;2.17;;
76604;SDS011;73179;50.978;16.998;2024-03-17T07:56:50;8.25;;;2.67;;
76604;SDS011;73179;50.978;16.998;2024-03-17T07:59:17;6.90;;;2.38;;
76604;SDS011;73179;50.978;16.998;2024-03-17T08:01:46;6.50;;;2.40;;
76604;SDS011;73179;50.978;16.998;2024-03-17T08:04:12;6.63;;;2.15;;
76604;SDS011;73179;50.978;16.998;2024-03-17T08:06:41;7.40;;;2.28;;
76604;SDS011;73179;50.978;16.998;2024-03-17T08:09:08;4.85;;;3.17;;
76604;SDS011;73179;50.978;16.998;2024-03-17T08:11:38;5.10;;;2.55;;
76604;SDS011;73179;50.978;16.998;2024-03-17T08:14:09;9.75;;;2.20;;
76604;SDS011;73179;50.978;16.998;2024-03-17T08:16:35;5.45;;;2.30;;
76604;SDS011;73179;50.978;16.998;2024-03-17T08:19:01;9.52;;;3.75;;
76604;SDS011;73179;50.978;16.998;2024-03-17T08:21:28;11.40;;;2.92;;
76604;SDS011;73179;50.978;16.998;2024-03-17T08:23:55;10.05;;;3.55;;
76604;SDS011;73179;50.978;16.998;2024-03-17T08:26:21;9.90;;;2.70;;
76604;SDS011;73179;50.978;16.998;2024-03-17T08:28:48;7.55;;;3.08;;
76604;SDS011;73179;50.978;16.998;2024-03-17T08:31:14;10.13;;;2.95;;
76604;SDS011;73179;50.978;16.998;2024-03-17T08:33:41;4.78;;;3.28;;
76604;SDS011;73179;50.978;16.998;2024-03-17T08:36:07;6.60;;;2.72;;
76604;SDS011;73179;50.978;16.998;2024-03-17T08:38:34;7.40;;;3.10;;
76604;SDS011;73179;50.978;16.998;2024-03-17T08:41:02;5.53;;;2.30;;
76604;SDS011;73179;50.978;16.998;2024-03-17T08:43:30;6.82;;;3.35;;
76604;SDS011;73179;50.978;16.998;2024-03-17T08:45:57;5.43;;;2.70;;
76604;SDS011;73179;50.978;16.998;2024-03-17T08:48:25;6.40;;;3.38;;
76604;SDS011;73179;50.978;16.998;2024-03-17T08:50:52;7.90;;;2.95;;
76604;SDS011;73179;50.978;16.998;2024-03-17T08:53:20;10.32;;;3.20;;
76604;SDS011;73179;50.978;16.998;2024-03-17T08:55:46;14.30;;;3.90;;
76604;SDS011;73179;50.978;16.998;2024-03-17T08:58:12;6.60;;;3.45;;
76604;SDS011;73179;50.978;16.998;2024-03-17T09:00:38;8.85;;;2.80;;
76604;SDS011;73179;50.978;16.998;2024-03-17T09:03:07;12.90;;;3.08;;
76604;SDS011;73179;50.978;16.998;2024-03-17T09:05:38;8.98;;;3.10;;
76604;SDS011;73179;50.978;16.998;2024-03-17T09:08:06;7.88;;;2.72;;
76604;SDS011;73179;50.978;16.998;2024-03-17T09:10:42;10.80;;;2.85;;
76604;SDS011;73179;50.978;16.998;2024-03-17T09:13:16;5.90;;;3.17;;
76604;SDS011;73179;50.978;16.998;2024-03-17T09:15:52;8.10;;;3.53;;
76604;SDS011;73179;50.978;16.998;2024-03-17T09:18:20;8.52;;;3.45;;
76604;SDS011;73179;50.978;16.998;2024-03-17T09:20:46;5.80;;;2.63;;
76604;SDS011;73179;50.978;16.998;2024-03-17T09:23:31;6.40;;;2.50;;
76604;SDS011;73179;50.978;16.998;2024-03-17T09:26:00;11.13;;;2.65;;
76604;SDS011;73179;50.978;16.998;2024-03-17T09:28:28;5.72;;;2.97;;
76604;SDS011;73179;50.978;16.998;2024-03-17T09:30:54;3.78;;;3.03;;
76604;SDS011;73179;50.978;16.998;2024-03-17T09:33:22;5.47;;;2.60;;
76604;SDS011;73179;50.978;16.998;2024-03-17T09:35:59;8.35;;;2.75;;
76604;SDS011;73179;50.978;16.998;2024-03-17T09:38:27;8.80;;;2.83;;
76604;SDS011;73179;50.978;16.998;2024-03-17T09:40:54;5.88;;;2.65;;
76604;SDS011;73179;50.978;16.998;2024-03-17T09:43:24;9.90;;;3.00;;
76604;SDS011;73179;50.978;16.998;2024-03-17T09:45:53;6.10;;;3.42;;
76604;SDS011;73179;50.978;16.998;2024-03-17T09:48:24;9.15;;;3.25;;
76604;SDS011;73179;50.978;16.998;2024-03-17T09:51:00;7.13;;;2.70;;
76604;SDS011;73179;50.978;16.998;2024-03-17T09:53:29;8.55;;;2.30;;
76604;SDS011;73179;50.978;16.998;2024-03-17T09:56:08;6.88;;;2.50;;
76604;SDS011;73179;50.978;16.998;2024-03-17T09:58:37;7.80;;;2.88;;
76604;SDS011;73179;50.978;16.998;2024-03-17T10:01:03;3.47;;;2.15;;
76604;SDS011;73179;50.978;16.998;2024-03-17T10:03:50;6.55;;;2.30;;
76604;SDS011;73179;50.978;16.998;2024-03-17T10:06:20;10.07;;;2.95;;
76604;SDS011;73179;50.978;16.998;2024-03-17T10:08:51;5.20;;;2.20;;
76604;SDS011;73179;50.978;16.998;2024-03-17T10:11:19;5.47;;;2.40;;
76604;SDS011;73179;50.978;16.998;2024-03-17T10:13:58;7.00;;;2.72;;
76604;SDS011;73179;50.978;16.998;2024-03-17T10:16:26;7.15;;;2.83;;
76604;SDS011;73179;50.978;16.998;2024-03-17T10:19:14;5.97;;;2.00;;
76604;SDS011;73179;50.978;16.998;2024-03-17T10:21:41;7.05;;;2.85;;
76604;SDS011;73179;50.978;16.998;2024-03-17T10:27:02;3.92;;;2.33;;
76604;SDS011;73179;50.978;16.998;2024-03-17T10:29:38;4.63;;;2.33;;
76604;SDS011;73179;50.978;16.998;2024-03-17T10:32:16;8.45;;;2.25;;
76604;SDS011;73179;50.978;16.998;2024-03-17T10:34:44;4.13;;;2.30;;
76604;SDS011;73179;50.978;16.998;2024-03-17T10:37:14;5.10;;;2.55;;
76604;SDS011;73179;50.978;16.998;2024-03-17T10:42:28;5.18;;;2.53;;
76604;SDS011;73179;50.978;16.998;2024-03-17T10:45:06;6.57;;;2.70;;
76604;SDS011;73179;50.978;16.998;2024-03-17T10:47:40;4.13;;;2.00;;
76604;SDS011;73179;50.978;16.998;2024-03-17T10:50:20;6.45;;;2.15;;
76604;SDS011;73179;50.978;16.998;2024-03-17T10:52:50;4.93;;;2.35;;
76604;SDS011;73179;50.978;16.998;2024-03-17T10:55:28;6.43;;;2.58;;
76604;SDS011;73179;50.978;16.998;2024-03-17T10:58:04;10.48;;;2.55;;
76604;SDS011;73179;50.978;16.998;2024-03-17T11:01:22;4.35;;;2.03;;
76604;SDS011;73179;50.978;16.998;2024-03-17T11:03:49;10.02;;;2.97;;
76604;SDS011;73179;50.978;16.998;2024-03-17T11:06:17;4.30;;;2.60;;
76604;SDS011;73179;50.978;16.998;2024-03-17T11:08:43;6.32;;;2.58;;
76604;SDS011;73179;50.978;16.998;2024-03-17T11:11:10;4.55;;;2.25;;
76604;SDS011;73179;50.978;16.998;2024-03-17T11:13:36;7.05;;;2.47;;
76604;SDS011;73179;50.978;16.998;2024-03-17T11:16:05;6.28;;;2.50;;
76604;SDS011;73179;50.978;16.998;2024-03-17T11:18:51;5.03;;;2.58;;
76604;SDS011;73179;50.978;16.998;2024-03-17T11:23:56;5.78;;;2.22;;
76604;SDS011;73179;50.978;16.998;2024-03-17T11:26:27;4.25;;;2.40;;
76604;SDS011;73179;50.978;16.998;2024-03-17T11:28:58;9.82;;;2.58;;
76604;SDS011;73179;50.978;16.998;2024-03-17T11:31:36;6.32;;;2.67;;
76604;SDS011;73179;50.978;16.998;2024-03-17T11:34:07;6.78;;;2.75;;
76604;SDS011;73179;50.978;16.998;2024-03-17T11:36:52;3.22;;;2.00;;
76604;SDS011;73179;50.978;16.998;2024-03-17T11:39:45;5.90;;;2.30;;
76604;SDS011;73179;50.978;16.998;2024-03-17T11:42:24;4.68;;;2.35;;
76604;SDS011;73179;50.978;16.998;2024-03-17T11:44:59;4.32;;;2.10;;
76604;SDS011;73179;50.978;16.998;2024-03-17T11:47:36;5.65;;;2.55;;
76604;SDS011;73179;50.978;16.998;2024-03-17T11:50:05;3.75;;;2.15;;
76604;SDS011;73179;50.978;16.998;2024-03-17T11:52:34;8.15;;;2.38;;
76604;SDS011;73179;50.978;16.998;2024-03-17T11:55:00;7.63;;;2.15;;
76604;SDS011;73179;50.978;16.998;2024-03-17T11:57:26;5.55;;;1.90;;
76604;SDS011;73179;50.978;16.998;2024-03-17T11:59:53;4.03;;;1.70;;
76604;SDS011;73179;50.978;16.998;2024-03-17T12:02:25;5.97;;;1.90;;
76604;SDS011;73179;50.978;16.998;2024-03-17T12:05:01;4.38;;;1.92;;
76604;SDS011;73179;50.978;16.998;2024-03-17T12:07:28;7.85;;;2.22;;
76604;SDS011;73179;50.978;16.998;2024-03-17T12:09:56;4.40;;;2.13;;
76604;SDS011;73179;50.978;16.998;2024-03-17T12:12:27;3.63;;;1.80;;
76604;SDS011;73179;50.978;16.998;2024-03-17T12:15:05;6.90;;;2.13;;
76604;SDS011;73179;50.978;16.998;2024-03-17T12:17:42;5.38;;;2.50;;
76604;SDS011;73179;50.978;16.998;2024-03-17T12:20:18;5.57;;;1.98;;
76604;SDS011;73179;50.978;16.998;2024-03-17T12:22:45;3.33;;;2.08;;
76604;SDS011;73179;50.978;16.998;2024-03-17T12:25:19;3.97;;;1.70;;
76604;SDS011;73179;50.978;16.998;2024-03-17T12:27:47;4.10;;;2.20;;
76604;SDS011;73179;50.978;16.998;2024-03-17T12:30:14;4.07;;;1.70;;
76604;SDS011;73179;50.978;16.998;2024-03-17T12:32:41;4.72;;;1.92;;
76604;SDS011;73179;50.978;16.998;2024-03-17T12:35:14;4.15;;;1.70;;
76604;SDS011;73179;50.978;16.998;2024-03-17T12:37:46;4.68;;;1.85;;
76604;SDS011;73179;50.978;16.998;2024-03-17T12:40:18;4.68;;;2.22;;
76604;SDS011;73179;50.978;16.998;2024-03-17T12:42:50;4.40;;;1.70;;
76604;SDS011;73179;50.978;16.998;2024-03-17T12:45:22;5.60;;;2.00;;
76604;SDS011;73179;50.978;16.998;2024-03-17T12:47:49;3.05;;;1.70;;
76604;SDS011;73179;50.978;16.998;2024-03-17T12:50:18;5.60;;;2.70;;
76604;SDS011;73179;50.978;16.998;2024-03-17T12:52:51;4.75;;;2.47;;
76604;SDS011;73179;50.978;16.998;2024-03-17T12:55:19;2.92;;;1.85;;
76604;SDS011;73179;50.978;16.998;2024-03-17T13:01:02;3.65;;;1.58;;
76604;SDS011;73179;50.978;16.998;2024-03-17T13:03:38;6.50;;;2.28;;
76604;SDS011;73179;50.978;16.998;2024-03-17T13:06:05;3.75;;;2.13;;
76604;SDS011;73179;50.978;16.998;2024-03-17T13:08:35;2.92;;;1.83;;
76604;SDS011;73179;50.978;16.998;2024-03-17T13:11:02;5.18;;;2.10;;
76604;SDS011;73179;50.978;16.998;2024-03-17T13:13:31;6.20;;;2.60;;
76604;SDS011;73179;50.978;16.998;2024-03-17T13:15:57;4.20;;;2.03;;
76604;SDS011;73179;50.978;16.998;2024-03-17T13:18:24;9.40;;;2.15;;
76604;SDS011;73179;50.978;16.998;2024-03-17T13:20:51;7.15;;;2.83;;
76604;SDS011;73179;50.978;16.998;2024-03-17T13:23:20;6.82;;;3.22;;
76604;SDS011;73179;50.978;16.998;2024-03-17T13:25:50;3.65;;;2.00;;
76604;SDS011;73179;50.978;16.998;2024-03-17T13:28:16;6.47;;;2.47;;
76604;SDS011;73179;50.978;16.998;2024-03-17T13:30:42;4.05;;;2.28;;
76604;SDS011;73179;50.978;16.998;2024-03-17T13:33:09;6.75;;;2.53;;
76604;SDS011;73179;50.978;16.998;2024-03-17T13:35:37;4.90;;;2.75;;
76604;SDS011;73179;50.978;16.998;2024-03-17T13:38:05;6.15;;;2.30;;
76604;SDS011;73179;50.978;16.998;2024-03-17T13:40:32;5.60;;;2.40;;
76604;SDS011;73179;50.978;16.998;2024-03-17T13:43:00;5.82;;;2.10;;
76604;SDS011;73179;50.978;16.998;2024-03-17T13:45:27;4.03;;;2.30;;
76604;SDS011;73179;50.978;16.998;2024-03-17T13:47:58;6.80;;;2.72;;
76604;SDS011;73179;50.978;16.998;2024-03-17T13:50:31;5.20;;;1.88;;
76604;SDS011;73179;50.978;16.998;2024-03-17T13:52:58;10.48;;;2.55;;
76604;SDS011;73179;50.978;16.998;2024-03-17T13:55:24;10.60;;;3.17;;
76604;SDS011;73179;50.978;16.998;2024-03-17T13:57:55;7.72;;;2.67;;
76604;SDS011;73179;50.978;16.998;2024-03-17T14:00:22;6.82;;;2.67;;
76604;SDS011;73179;50.978;16.998;2024-03-17T14:02:50;4.40;;;2.33;;
76604;SDS011;73179;50.978;16.998;2024-03-17T14:05:19;4.35;;;2.38;;
76604;SDS011;73179;50.978;16.998;2024-03-17T14:07:47;8.48;;;2.85;;
76604;SDS011;73179;50.978;16.998;2024-03-17T14:10:15;7.90;;;2.65;;
76604;SDS011;73179;50.978;16.998;2024-03-17T14:12:43;7.85;;;2.50;;
76604;SDS011;73179;50.978;16.998;2024-03-17T14:15:10;5.88;;;3.00;;
76604;SDS011;73179;50.978;16.998;2024-03-17T14:17:38;5.70;;;2.47;;
76604;SDS011;73179;50.978;16.998;2024-03-17T14:20:05;6.28;;;2.40;;
76604;SDS011;73179;50.978;16.998;2024-03-17T14:22:35;5.13;;;2.55;;
76604;SDS011;73179;50.978;16.998;2024-03-17T14:25:10;8.95;;;3.85;;
76604;SDS011;73179;50.978;16.998;2024-03-17T14:27:42;7.00;;;2.78;;
76604;SDS011;73179;50.978;16.998;2024-03-17T14:30:08;7.05;;;3.17;;
76604;SDS011;73179;50.978;16.998;2024-03-17T14:32:39;5.25;;;2.63;;
76604;SDS011;73179;50.978;16.998;2024-03-17T14:35:05;5.43;;;2.63;;
76604;SDS011;73179;50.978;16.998;2024-03-17T14:37:31;3.97;;;2.15;;
76604;SDS011;73179;50.978;16.998;2024-03-17T14:39:58;7.13;;;3.22;;
76604;SDS011;73179;50.978;16.998;2024-03-17T14:42:25;5.22;;;2.60;;
76604;SDS011;73179;50.978;16.998;2024-03-17T14:44:51;5.75;;;2.55;;
76604;SDS011;73179;50.978;16.998;2024-03-17T14:47:17;5.75;;;2.80;;
76604;SDS011;73179;50.978;16.998;2024-03-17T14:49:43;5.30;;;2.42;;
76604;SDS011;73179;50.978;16.998;2024-03-17T14:52:11;7.97;;;2.63;;